createdAt,value
2022-08-25T00:00:55.359Z,77.8
2022-08-25T00:01:56.316Z,78
2022-08-25T00:02:57.777Z,78.2
2022-08-25T00:03:58.395Z,78.3
2022-08-25T00:04:59.421Z,78.2
2022-08-25T00:06:00.366Z,78.1
2022-08-25T00:07:03.229Z,78.1
2022-08-25T00:08:02.387Z,78
2022-08-25T00:09:03.341Z,77.8
2022-08-25T00:10:04.370Z,77.9
2022-08-25T00:11:05.338Z,77.9
2022-08-25T00:12:07.445Z,77.8
2022-08-25T00:13:09.367Z,78
2022-08-25T00:14:10.342Z,78.2
2022-08-25T00:15:11.375Z,78.2
2022-08-25T00:16:12.439Z,78.3
2022-08-25T00:17:13.347Z,78.3
2022-08-25T00:18:16.953Z,78.4
2022-08-25T00:19:15.361Z,78.7
2022-08-25T00:20:16.421Z,78.9
2022-08-25T00:21:17.387Z,79
2022-08-25T00:22:18.357Z,78.8
2022-08-25T00:23:19.415Z,78.6
2022-08-25T00:24:20.369Z,78.6
2022-08-25T00:25:21.371Z,78.5
2022-08-25T00:26:22.362Z,78.4
2022-08-25T00:27:23.368Z,78.1
2022-08-25T00:28:24.395Z,78
2022-08-25T00:29:25.369Z,77.8
2022-08-25T00:30:26.390Z,77.5
2022-08-25T00:31:37.586Z,77.5
2022-08-25T00:32:28.470Z,77.5
2022-08-25T00:33:29.395Z,77.4
2022-08-25T00:34:30.374Z,77.3
2022-08-25T00:35:31.379Z,77.3
2022-08-25T00:36:32.378Z,77.3
2022-08-25T00:37:33.392Z,77.2
2022-08-25T00:38:34.453Z,77.4
2022-08-25T00:39:35.392Z,77.7
2022-08-25T00:40:36.400Z,78
2022-08-25T00:41:37.387Z,77.8
2022-08-25T00:42:38.383Z,77.5
2022-08-25T00:43:39.418Z,77.4
2022-08-25T00:44:40.409Z,77.6
2022-08-25T00:45:41.426Z,77.6
2022-08-25T00:46:42.526Z,77.9
2022-08-25T00:47:43.385Z,78.3
2022-08-25T00:48:44.402Z,78.7
2022-08-25T00:49:45.399Z,78.8
2022-08-25T00:50:47.229Z,78.9
2022-08-25T00:51:48.434Z,79
2022-08-25T00:52:49.399Z,79.3
2022-08-25T00:53:50.403Z,79.8
2022-08-25T00:54:51.391Z,80
2022-08-25T00:55:52.418Z,80.1
2022-08-25T00:56:53.453Z,80.2
2022-08-25T00:57:54.420Z,80.1
2022-08-25T00:58:55.424Z,80
2022-08-25T00:59:56.427Z,79.7
2022-08-25T01:00:57.451Z,79.4
2022-08-25T01:01:58.481Z,79.1
2022-08-25T01:02:59.495Z,78.9
2022-08-25T01:04:00.425Z,78.9
2022-08-25T01:05:01.608Z,78.9
2022-08-25T01:06:03.423Z,79.1
2022-08-25T01:07:04.448Z,79.2
2022-08-25T01:08:06.594Z,79.5
2022-08-25T01:09:06.463Z,79.6
2022-08-25T01:10:07.461Z,79.6
2022-08-25T01:11:08.431Z,79.8
2022-08-25T01:12:09.462Z,79.9
2022-08-25T01:13:16.356Z,79.9
2022-08-25T01:14:12.488Z,79.8
2022-08-25T01:15:13.475Z,79.7
2022-08-25T01:16:14.567Z,79.6
2022-08-25T01:17:15.456Z,79.4
2022-08-25T01:18:16.461Z,79.3
2022-08-25T01:19:17.516Z,79.1
2022-08-25T01:20:18.461Z,79
2022-08-25T01:21:19.455Z,79
2022-08-25T01:22:20.453Z,78.9
2022-08-25T01:23:21.503Z,78.6
2022-08-25T01:24:22.488Z,78.5
2022-08-25T01:25:23.458Z,78.4
2022-08-25T01:26:25.201Z,78.4
2022-08-25T01:27:25.507Z,78.4
2022-08-25T01:28:26.704Z,78.4
2022-08-25T01:29:28.501Z,78.3
2022-08-25T01:30:29.456Z,78.1
2022-08-25T01:31:30.585Z,78
2022-08-25T01:32:31.495Z,78
2022-08-25T01:33:32.492Z,78.1
2022-08-25T01:34:33.531Z,78.1
2022-08-25T01:35:34.492Z,78.3
2022-08-25T01:36:35.474Z,78.4
2022-08-25T01:37:36.517Z,78.4
2022-08-25T01:38:37.495Z,78.4
2022-08-25T01:39:38.530Z,78.1
2022-08-25T01:40:39.502Z,78
2022-08-25T01:41:40.474Z,77.8
2022-08-25T01:42:41.582Z,77.8
2022-08-25T01:43:42.532Z,77.8
2022-08-25T01:44:43.492Z,77.7
2022-08-25T01:45:44.635Z,77.8
2022-08-25T01:46:45.498Z,78.1
2022-08-25T01:47:46.543Z,78.5
2022-08-25T01:48:47.510Z,79.2
2022-08-25T01:49:48.681Z,79.7
2022-08-25T01:50:50.501Z,80.1
2022-08-25T01:51:51.515Z,80.4
2022-08-25T01:52:52.528Z,80.8
2022-08-25T01:53:53.516Z,81.2
2022-08-25T01:54:54.567Z,81.3
2022-08-25T01:55:55.502Z,81.5
2022-08-25T01:56:56.535Z,81.2
2022-08-25T01:57:57.538Z,80.9
2022-08-25T01:58:58.522Z,80.7
2022-08-25T01:59:59.542Z,80.8
2022-08-25T02:01:00.549Z,81
2022-08-25T02:02:01.560Z,81.2
2022-08-25T02:03:02.607Z,81.4
2022-08-25T02:04:03.565Z,81.6
2022-08-25T02:05:04.576Z,81.3
2022-08-25T02:06:05.528Z,81
2022-08-25T02:07:06.545Z,80.7
2022-08-25T02:08:07.547Z,80.5
2022-08-25T02:09:08.574Z,80.6
2022-08-25T02:10:09.534Z,80.6
2022-08-25T02:11:10.587Z,80.6
2022-08-25T02:12:11.539Z,80.5
2022-08-25T02:13:12.549Z,80.1
2022-08-25T02:14:13.541Z,80
2022-08-25T02:15:14.577Z,79.9
2022-08-25T02:16:15.565Z,79.5
2022-08-25T02:17:16.572Z,79.4
2022-08-25T02:18:17.570Z,79.4
2022-08-25T02:19:18.569Z,79.8
2022-08-25T02:20:19.600Z,80.2
2022-08-25T02:21:20.552Z,80.7
2022-08-25T02:22:21.566Z,80.9
2022-08-25T02:23:22.553Z,81
2022-08-25T02:24:23.571Z,81.2
2022-08-25T02:25:24.604Z,81.5
2022-08-25T02:26:25.571Z,81.8
2022-08-25T02:27:26.562Z,82.1
2022-08-25T02:28:27.595Z,82.4
2022-08-25T02:29:28.578Z,82.6
2022-08-25T02:30:29.621Z,82.6
2022-08-25T02:31:30.577Z,83
2022-08-25T02:32:31.572Z,83.2
2022-08-25T02:33:32.619Z,83.2
2022-08-25T02:34:33.593Z,83.1
2022-08-25T02:35:34.585Z,82.9
2022-08-25T02:36:35.616Z,82.8
2022-08-25T02:37:36.579Z,82.5
2022-08-25T02:38:37.609Z,82.6
2022-08-25T02:39:38.577Z,82.6
2022-08-25T02:40:39.604Z,82.7
2022-08-25T02:41:40.581Z,82.7
2022-08-25T02:42:42.600Z,82.6
2022-08-25T02:43:42.619Z,82.5
2022-08-25T02:44:43.575Z,82.4
2022-08-25T02:45:44.730Z,82.4
2022-08-25T02:46:45.590Z,82.6
2022-08-25T02:47:46.608Z,83
2022-08-25T02:48:47.616Z,83.4
2022-08-25T02:49:48.605Z,83.6
2022-08-25T02:50:49.668Z,83.6
2022-08-25T02:51:50.602Z,83.4
2022-08-25T02:52:51.608Z,83
2022-08-25T02:53:52.602Z,82.7
2022-08-25T02:54:53.613Z,82.3
2022-08-25T02:55:54.959Z,82
2022-08-25T02:56:56.617Z,81.7
2022-08-25T02:57:57.615Z,81.4
2022-08-25T02:58:58.620Z,81
2022-08-25T02:59:59.614Z,80.7
2022-08-25T03:01:00.756Z,80.4
2022-08-25T03:02:01.657Z,80.2
2022-08-25T03:03:02.624Z,80.2
2022-08-25T03:04:03.661Z,80.2
2022-08-25T03:05:04.742Z,80.2
2022-08-25T03:06:05.668Z,80
2022-08-25T03:07:06.641Z,79.9
2022-08-25T03:08:07.638Z,80.1
2022-08-25T03:09:08.623Z,80.3
2022-08-25T03:10:09.648Z,80.9
2022-08-25T03:11:10.692Z,81.7
2022-08-25T03:12:11.637Z,82.4
2022-08-25T03:13:12.685Z,82.6
2022-08-25T03:14:13.643Z,82.4
2022-08-25T03:15:14.686Z,82.1
2022-08-25T03:16:15.751Z,81.7
2022-08-25T03:17:16.650Z,81.3
2022-08-25T03:18:17.663Z,81
2022-08-25T03:19:18.654Z,80.9
2022-08-25T03:20:19.655Z,80.9
2022-08-25T03:21:20.688Z,81
2022-08-25T03:22:21.665Z,81
2022-08-25T03:23:22.689Z,81
2022-08-25T03:24:23.651Z,80.8
2022-08-25T03:25:24.659Z,80.6
2022-08-25T03:26:25.698Z,80.5
2022-08-25T03:27:26.663Z,80.6
2022-08-25T03:28:30.036Z,80.7
2022-08-25T03:29:28.670Z,80.7
2022-08-25T03:30:29.684Z,80.4
2022-08-25T03:31:30.707Z,80.2
2022-08-25T03:32:31.693Z,79.8
2022-08-25T03:33:32.735Z,79.5
2022-08-25T03:34:33.674Z,79.3
2022-08-25T03:35:34.678Z,79
2022-08-25T03:36:35.685Z,79
2022-08-25T03:37:36.679Z,78.9
2022-08-25T03:38:37.723Z,78.9
2022-08-25T03:39:38.689Z,78.9
2022-08-25T03:40:39.699Z,78.9
2022-08-25T03:41:40.766Z,79.3
2022-08-25T03:42:44.823Z,79.5
2022-08-25T03:43:42.684Z,79.4
2022-08-25T03:44:43.703Z,79.3
2022-08-25T03:45:44.791Z,79.1
2022-08-25T03:46:45.781Z,78.9
2022-08-25T03:47:46.704Z,78.7
2022-08-25T03:48:47.701Z,78.4
2022-08-25T03:49:48.689Z,78.3
2022-08-25T03:50:50.454Z,78.6
2022-08-25T03:51:50.775Z,78.8
2022-08-25T03:52:51.701Z,78.7
2022-08-25T03:53:52.695Z,78.5
2022-08-25T03:54:53.710Z,78.4
2022-08-25T03:55:54.718Z,78.4
2022-08-25T03:56:55.737Z,78.4
2022-08-25T03:57:56.745Z,78.2
2022-08-25T03:58:57.719Z,78.2
2022-08-25T03:59:58.706Z,78.2
2022-08-25T04:00:59.790Z,78.1
2022-08-25T04:02:00.818Z,78
2022-08-25T04:03:01.780Z,77.9
2022-08-25T04:04:02.756Z,77.8
2022-08-25T04:05:03.763Z,77.9
2022-08-25T04:06:04.738Z,78.2
2022-08-25T04:07:05.777Z,78.4
2022-08-25T04:08:07.000Z,78.4
2022-08-25T04:09:07.727Z,78.4
2022-08-25T04:10:08.734Z,78.5
2022-08-25T04:11:09.730Z,78.5
2022-08-25T04:12:10.791Z,78.4
2022-08-25T04:13:11.734Z,78.5
2022-08-25T04:14:13.147Z,78.5
2022-08-25T04:15:13.817Z,78.5
2022-08-25T04:16:14.815Z,78.6
2022-08-25T04:17:15.800Z,78.7
2022-08-25T04:18:16.748Z,78.7
2022-08-25T04:19:17.778Z,78.8
2022-08-25T04:20:18.752Z,78.7
2022-08-25T04:21:19.765Z,78.8
2022-08-25T04:22:20.795Z,78.8
2022-08-25T04:23:22.013Z,78.6
2022-08-25T04:24:23.784Z,78.6
2022-08-25T04:25:24.753Z,78.7
2022-08-25T04:26:25.768Z,78.7
2022-08-25T04:27:26.757Z,78.7
2022-08-25T04:28:27.786Z,78.8
2022-08-25T04:29:28.797Z,78.8
2022-08-25T04:30:29.762Z,78.7
2022-08-25T04:31:30.875Z,78.9
2022-08-25T04:32:31.806Z,78.9
2022-08-25T04:33:32.775Z,79.1
2022-08-25T04:34:33.795Z,79.2
2022-08-25T04:35:34.778Z,79.2
2022-08-25T04:36:35.792Z,79.2
2022-08-25T04:37:36.817Z,79.1
2022-08-25T04:38:37.787Z,79.1
2022-08-25T04:39:38.788Z,78.9
2022-08-25T04:40:39.784Z,78.8
2022-08-25T04:41:40.795Z,78.6
2022-08-25T04:42:41.817Z,78.4
2022-08-25T04:43:42.780Z,78.3
2022-08-25T04:44:43.778Z,78.3
2022-08-25T04:45:44.840Z,78.1
2022-08-25T04:46:45.793Z,78.1
2022-08-25T04:47:47.605Z,78.2
2022-08-25T04:48:47.805Z,78.2
2022-08-25T04:49:54.023Z,78.2
2022-08-25T04:50:55.812Z,78.1
2022-08-25T04:51:56.794Z,78
2022-08-25T04:52:57.815Z,78
2022-08-25T04:53:58.819Z,77.9
2022-08-25T04:54:59.870Z,77.6
2022-08-25T04:56:03.786Z,77.7
2022-08-25T04:57:01.956Z,77.9
2022-08-25T04:58:03.970Z,78.2
2022-08-25T04:59:04.828Z,78.5
2022-08-25T05:00:05.901Z,78.6
2022-08-25T05:01:07.014Z,78.8
2022-08-25T05:02:07.842Z,78.8
2022-08-25T05:03:08.849Z,78.7
2022-08-25T05:04:14.536Z,78.7
2022-08-25T05:05:10.852Z,78.7
2022-08-25T05:06:15.804Z,78.7
2022-08-25T05:07:12.832Z,78.9
2022-08-25T05:08:13.858Z,78.8
2022-08-25T05:09:14.843Z,78.8
2022-08-25T05:10:15.830Z,78.5
2022-08-25T05:11:16.874Z,78.4
2022-08-25T05:12:17.834Z,78.4
2022-08-25T05:13:18.883Z,78.4
2022-08-25T05:14:19.836Z,78.2
2022-08-25T05:15:20.847Z,78.2
2022-08-25T05:16:21.905Z,78.2
2022-08-25T05:17:22.895Z,78.1
2022-08-25T05:18:23.898Z,78.1
2022-08-25T05:19:24.858Z,78
2022-08-25T05:20:25.848Z,77.8
2022-08-25T05:21:26.874Z,77.5
2022-08-25T05:22:27.855Z,77.4
2022-08-25T05:23:28.967Z,77.1
2022-08-25T05:24:30.871Z,76.8
2022-08-25T05:25:31.902Z,76.6
2022-08-25T05:26:32.903Z,76.6
2022-08-25T05:27:33.866Z,76.8
2022-08-25T05:28:34.902Z,77
2022-08-25T05:29:35.861Z,77.3
2022-08-25T05:30:36.898Z,77.5
2022-08-25T05:31:41.878Z,77.6
2022-08-25T05:32:38.906Z,77.6
2022-08-25T05:33:39.883Z,77.6
2022-08-25T05:34:40.916Z,77.5
2022-08-25T05:35:41.879Z,77.4
2022-08-25T05:36:42.884Z,77.5
2022-08-25T05:37:43.874Z,77.5
2022-08-25T05:38:44.876Z,77.6
2022-08-25T05:39:46.039Z,77.3
2022-08-25T05:40:46.902Z,77
2022-08-25T05:41:47.901Z,76.9
2022-08-25T05:42:48.887Z,76.8
2022-08-25T05:43:49.913Z,76.9
2022-08-25T05:44:50.954Z,77.1
2022-08-25T05:45:51.944Z,77.2
2022-08-25T05:46:52.899Z,77.3
2022-08-25T05:47:53.952Z,77.3
2022-08-25T05:48:54.959Z,77.3
2022-08-25T05:49:55.944Z,77.4
2022-08-25T05:50:56.924Z,77.3
2022-08-25T05:51:57.908Z,77
2022-08-25T05:52:58.947Z,77
2022-08-25T05:53:59.910Z,76.8
2022-08-25T05:55:00.953Z,76.4
2022-08-25T05:56:02.128Z,76.2
2022-08-25T05:57:03.899Z,76.2
2022-08-25T05:58:05.178Z,75.9
2022-08-25T05:59:09.217Z,76.3
2022-08-25T06:00:07.017Z,76.7
2022-08-25T06:01:08.020Z,76.6
2022-08-25T06:02:08.929Z,76.3
2022-08-25T06:03:09.983Z,76.1
2022-08-25T06:04:10.966Z,75.9
2022-08-25T06:05:12.014Z,75.4
2022-08-25T06:06:12.930Z,74.8
2022-08-25T06:07:13.987Z,74.3
2022-08-25T06:08:14.927Z,74.5
2022-08-25T06:09:15.940Z,74.5
2022-08-25T06:10:16.978Z,74.2
2022-08-25T06:11:17.949Z,74.1
2022-08-25T06:12:18.944Z,74.1
2022-08-25T06:13:20.760Z,73.9
2022-08-25T06:14:20.992Z,73.6
2022-08-25T06:15:22.007Z,73.4
2022-08-25T06:16:23.034Z,73.2
2022-08-25T06:17:24.095Z,73.1
2022-08-25T06:18:25.948Z,72.8
2022-08-25T06:19:27.044Z,72.1
2022-08-25T06:20:28.193Z,71.5
2022-08-25T06:21:29.985Z,71.3
2022-08-25T06:22:30.981Z,71.1
2022-08-25T06:23:31.975Z,71.1
2022-08-25T06:24:32.988Z,70.9
2022-08-25T06:25:33.983Z,70.6
2022-08-25T06:26:35.678Z,70.5
2022-08-25T06:27:37.489Z,69.8
2022-08-25T06:28:40.323Z,69.5
2022-08-25T06:29:42.008Z,69.3
2022-08-25T06:30:43.038Z,69.7
2022-08-25T06:31:45.643Z,69.7
2022-08-25T06:32:47.515Z,70.3
2022-08-25T06:33:48.985Z,70.6
2022-08-25T06:34:49.987Z,71
2022-08-25T06:35:51.428Z,70.9
2022-08-25T06:36:52.998Z,70.9
2022-08-25T06:37:53.984Z,71.3
2022-08-25T06:38:55.003Z,71.3
2022-08-25T06:39:57.050Z,71.2
2022-08-25T06:40:58.269Z,70.7
2022-08-25T06:42:01.043Z,70.6
2022-08-25T06:43:02.019Z,71
2022-08-25T06:44:04.742Z,71.2
2022-08-25T06:45:06.396Z,71.4
2022-08-25T06:46:09.004Z,71.7
2022-08-25T06:47:11.085Z,72.2
2022-08-25T06:48:12.019Z,72.2
2022-08-25T06:49:14.433Z,71.9
2022-08-25T06:50:16.814Z,71.4
2022-08-25T06:51:18.048Z,70.4
2022-08-25T06:52:19.017Z,69.2
2022-08-25T06:53:20.316Z,68.4
2022-08-25T06:54:22.343Z,68.1
2022-08-25T06:55:24.244Z,69
2022-08-25T06:56:27.323Z,68.9
2022-08-25T06:57:30.203Z,69.3
2022-08-25T06:58:32.079Z,69
2022-08-25T06:59:33.019Z,68.9
2022-08-25T07:00:35.952Z,68.8
2022-08-25T07:01:38.994Z,68.5
2022-08-25T07:02:40.107Z,68.8
2022-08-25T07:03:41.044Z,68.7
2022-08-25T07:04:43.779Z,69
2022-08-25T07:05:45.417Z,68.9
2022-08-25T07:06:47.296Z,69.3
2022-08-25T07:07:49.022Z,69.1
2022-08-25T07:08:51.402Z,68.8
2022-08-25T07:09:53.502Z,68.5
2022-08-25T07:10:55.063Z,68.5
2022-08-25T07:11:56.132Z,68.1
2022-08-25T07:12:57.209Z,67.7
2022-08-25T07:13:59.063Z,67.9
2022-08-25T07:15:10.281Z,69.5
2022-08-25T07:16:01.090Z,70.8
2022-08-25T07:17:02.586Z,71.6
2022-08-25T07:18:05.888Z,72.1
2022-08-25T07:19:08.280Z,72.2
2022-08-25T07:20:09.083Z,71.8
2022-08-25T07:21:10.063Z,71.4
2022-08-25T07:22:11.712Z,70.4
2022-08-25T07:23:13.071Z,69.4
2022-08-25T07:24:14.444Z,68.6
2022-08-25T07:25:18.448Z,67.3
2022-08-25T07:26:36.604Z,65.8
2022-08-25T07:27:22.289Z,63.8
2022-08-25T07:28:24.087Z,62.3
2022-08-25T07:29:31.795Z,62.1
2022-08-25T07:30:26.097Z,62
2022-08-25T07:31:29.418Z,61.9
2022-08-25T07:32:30.541Z,61.6
2022-08-25T07:33:32.811Z,60.9
2022-08-25T07:34:34.106Z,59.1
2022-08-25T07:35:36.614Z,57.6
2022-08-25T07:36:37.299Z,57.3
2022-08-25T07:37:48.753Z,57.3
2022-08-25T07:38:41.116Z,57.3
2022-08-25T07:39:42.114Z,57.6
2022-08-25T07:40:44.125Z,58.6
2022-08-25T07:41:46.090Z,59.8
2022-08-25T07:42:47.092Z,60.5
2022-08-25T07:43:48.767Z,59.3
2022-08-25T07:44:50.134Z,58.6
2022-08-25T07:45:51.152Z,57.7
2022-08-25T07:46:53.856Z,56.8
2022-08-25T07:47:55.455Z,56.2
2022-08-25T07:48:57.107Z,55.7
2022-08-25T07:49:58.094Z,54.9
2022-08-25T07:50:59.180Z,53.8
2022-08-25T07:52:04.793Z,51.8
2022-08-25T07:53:02.110Z,50.7
2022-08-25T07:54:03.229Z,50.3
2022-08-25T07:55:05.320Z,50.3
2022-08-25T07:56:07.159Z,51
2022-08-25T07:57:09.150Z,51.2
2022-08-25T07:58:13.877Z,51.8
2022-08-25T07:59:15.207Z,51.7
2022-08-25T08:00:15.683Z,52.8
2022-08-25T08:01:17.257Z,52.8
2022-08-25T08:02:19.292Z,51.3
2022-08-25T08:03:35.385Z,51.1
2022-08-25T08:04:21.225Z,50.9
2022-08-25T08:05:22.723Z,51.5
2022-08-25T08:06:24.174Z,51.2
2022-08-25T08:07:25.785Z,50.8
2022-08-25T08:08:25.533Z,50.4
2022-08-25T08:09:26.603Z,49.1
2022-08-25T08:11:03.065Z,48.4
2022-08-25T08:11:28.552Z,47.7
2022-08-25T08:12:29.591Z,46.8
2022-08-25T08:13:30.579Z,45.8
2022-08-25T08:14:31.541Z,45.1
2022-08-25T08:15:32.548Z,44.3
2022-08-25T08:16:33.705Z,44.2
2022-08-25T08:17:34.895Z,44
2022-08-25T08:18:35.551Z,43.8
2022-08-25T08:19:37.557Z,43.3
2022-08-25T08:20:42.443Z,43.1
2022-08-25T08:21:39.206Z,43.6
2022-08-25T08:22:40.185Z,43.6
2022-08-25T08:23:41.175Z,44.1
2022-08-25T08:24:44.540Z,44.6
2022-08-25T08:25:43.174Z,45.1
2022-08-25T08:26:58.042Z,45.1
2022-08-25T08:27:45.214Z,45.3
2022-08-25T08:28:52.012Z,45.8
2022-08-25T08:29:47.180Z,46.3
2022-08-25T08:30:52.011Z,46.6
2022-08-25T08:31:49.514Z,47.1
2022-08-25T08:33:09.944Z,47.5
2022-08-25T08:33:52.193Z,47.8
2022-08-25T08:34:53.214Z,47.8
2022-08-25T08:35:54.239Z,47.5
2022-08-25T08:36:55.258Z,47.6
2022-08-25T08:37:56.290Z,48
2022-08-25T08:38:57.232Z,47.9
2022-08-25T08:39:58.230Z,48.6
2022-08-25T08:40:59.210Z,49.3
2022-08-25T08:42:11.054Z,49.2
2022-08-25T08:43:01.239Z,48.7
2022-08-25T08:44:02.438Z,49.1
2022-08-25T08:45:04.264Z,49.4
2022-08-25T08:46:05.549Z,49.9
2022-08-25T08:47:09.006Z,50.3
2022-08-25T08:48:09.175Z,51
2022-08-25T08:49:09.230Z,51.5
2022-08-25T08:50:10.253Z,51.4
2022-08-25T08:51:11.266Z,50.7
2022-08-25T08:52:12.257Z,50.9
2022-08-25T08:53:13.261Z,51.3
2022-08-25T08:54:15.266Z,51.9
2022-08-25T08:55:15.281Z,51.8
2022-08-25T08:56:16.247Z,51.7
2022-08-25T08:57:17.413Z,51.8
2022-08-25T08:58:18.258Z,51.9
2022-08-25T08:59:19.313Z,52.9
2022-08-25T09:00:20.233Z,52.9
2022-08-25T09:01:21.280Z,52.9
2022-08-25T09:02:30.756Z,54
2022-08-25T09:03:23.324Z,53.6
2022-08-25T09:04:24.547Z,53.1
2022-08-25T09:05:26.298Z,52.9
2022-08-25T09:06:27.250Z,53.2
2022-08-25T09:07:28.282Z,53.7
2022-08-25T09:08:29.331Z,54
2022-08-25T09:09:30.320Z,54.6
2022-08-25T09:10:31.277Z,54.5
2022-08-25T09:11:32.287Z,54.3
2022-08-25T09:12:33.409Z,53.9
2022-08-25T09:13:34.284Z,53.5
2022-08-25T09:14:35.307Z,52.8
2022-08-25T09:15:41.216Z,51.7
2022-08-25T09:16:38.421Z,51.4
2022-08-25T09:17:39.286Z,51
2022-08-25T09:18:41.178Z,50.5
2022-08-25T09:19:41.856Z,50.2
2022-08-25T09:20:41.657Z,50
2022-08-25T09:21:42.664Z,49.7
2022-08-25T09:22:43.683Z,49.1
2022-08-25T09:23:44.654Z,48
2022-08-25T09:24:45.903Z,46.6
2022-08-25T09:25:52.857Z,45.8
2022-08-25T09:26:47.668Z,45.2
2022-08-25T09:27:48.712Z,43.8
2022-08-25T09:28:51.310Z,42.3
2022-08-25T09:29:50.670Z,41
2022-08-25T09:30:51.786Z,40.1
2022-08-25T09:31:52.679Z,39.6
2022-08-25T09:32:53.695Z,38.9
2022-08-25T09:33:54.698Z,37.9
2022-08-25T09:34:55.741Z,37.3
2022-08-25T09:35:57.406Z,36.9
2022-08-25T09:36:57.716Z,36.4
2022-08-25T09:37:58.751Z,36.5
2022-08-25T09:38:59.688Z,36.4
2022-08-25T09:40:00.769Z,36.3
2022-08-25T09:41:01.787Z,36.1
2022-08-25T09:42:02.815Z,35.7
2022-08-25T09:43:03.724Z,35.7
2022-08-25T09:44:04.743Z,36
2022-08-25T09:45:05.792Z,36.3
2022-08-25T09:46:06.948Z,37
2022-08-25T09:47:08.235Z,37.3
2022-08-25T09:48:08.734Z,37.4
2022-08-25T09:49:09.793Z,37.7
2022-08-25T09:50:10.791Z,37.9
2022-08-25T09:51:11.913Z,37.6
2022-08-25T09:52:12.847Z,37.2
2022-08-25T09:53:15.317Z,37.8
2022-08-25T09:54:14.740Z,38.2
2022-08-25T09:55:15.743Z,38.7
2022-08-25T09:56:16.763Z,40.3
2022-08-25T09:57:17.821Z,41.3
2022-08-25T09:58:18.739Z,41.7
2022-08-25T09:59:19.753Z,41.5
2022-08-25T10:00:20.781Z,42.3
2022-08-25T10:01:22.373Z,42.3
2022-08-25T10:02:22.749Z,42.6
2022-08-25T10:03:24.712Z,42.4
2022-08-25T10:04:24.761Z,42.5
2022-08-25T10:05:25.873Z,43.1
2022-08-25T10:06:26.749Z,43.3
2022-08-25T10:07:27.767Z,43
2022-08-25T10:08:28.751Z,43.4
2022-08-25T10:09:29.743Z,43.5
2022-08-25T10:10:32.314Z,43.9
2022-08-25T10:11:31.763Z,44
2022-08-25T10:12:32.767Z,43.9
2022-08-25T10:13:33.780Z,43.8
2022-08-25T10:14:34.771Z,42.6
2022-08-25T10:15:35.884Z,42
2022-08-25T10:16:36.888Z,40.9
2022-08-25T10:17:37.852Z,40.9
2022-08-25T10:18:38.946Z,40.9
2022-08-25T10:19:39.811Z,41.6
2022-08-25T10:20:42.240Z,41.6
2022-08-25T10:21:41.790Z,42.4
2022-08-25T10:22:42.818Z,43.8
2022-08-25T10:23:43.801Z,44.3
2022-08-25T10:24:44.828Z,44.7
2022-08-25T10:25:57.672Z,43.8
2022-08-25T10:26:46.811Z,42.9
2022-08-25T10:27:47.778Z,41.6
2022-08-25T10:28:48.779Z,40.7
2022-08-25T10:29:49.797Z,40.1
2022-08-25T10:30:50.897Z,39.9
2022-08-25T10:31:51.815Z,39.3
2022-08-25T10:32:52.815Z,39.2
2022-08-25T10:33:53.792Z,39.9
2022-08-25T10:34:54.796Z,41.1
2022-08-25T10:35:55.856Z,40.9
2022-08-25T10:36:56.807Z,41.3
2022-08-25T10:37:57.820Z,42
2022-08-25T10:38:58.817Z,42.5
2022-08-25T10:40:00.012Z,42.5
2022-08-25T10:41:00.899Z,41.4
2022-08-25T10:42:01.800Z,40.7
2022-08-25T10:43:02.928Z,41.2
2022-08-25T10:44:03.854Z,41.6
2022-08-25T10:45:04.896Z,41.9
2022-08-25T10:46:06.123Z,41.1
2022-08-25T10:47:06.859Z,40.7
2022-08-25T10:48:07.833Z,40.7
2022-08-25T10:49:08.823Z,40.9
2022-08-25T10:50:09.855Z,41.3
2022-08-25T10:51:13.580Z,40.6
2022-08-25T10:52:11.884Z,40.3
2022-08-25T10:53:12.856Z,39.9
2022-08-25T10:54:13.846Z,39.4
2022-08-25T10:55:14.933Z,38.9
2022-08-25T10:56:15.999Z,39.1
2022-08-25T10:57:16.890Z,39.4
2022-08-25T10:58:18.087Z,40.3
2022-08-25T10:59:18.910Z,40.3
2022-08-25T11:00:20.875Z,40.3
2022-08-25T11:01:28.155Z,40.8
2022-08-25T11:02:23.534Z,41.7
2022-08-25T11:03:25.630Z,42.7
2022-08-25T11:04:25.291Z,43.4
2022-08-25T11:05:25.994Z,44
2022-08-25T11:06:26.884Z,45.1
2022-08-25T11:07:27.869Z,45
2022-08-25T11:08:29.132Z,45.4
2022-08-25T11:09:29.873Z,45.6
2022-08-25T11:10:30.852Z,44.7
2022-08-25T11:11:31.882Z,44
2022-08-25T11:12:33.027Z,42.7
2022-08-25T11:13:33.923Z,42
2022-08-25T11:14:35.076Z,42.3
2022-08-25T11:15:35.935Z,41.9
2022-08-25T11:16:37.199Z,41.7
2022-08-25T11:17:37.884Z,41.7
2022-08-25T11:18:38.955Z,41
2022-08-25T11:19:39.921Z,40.4
2022-08-25T11:20:41.041Z,40.3
2022-08-25T11:21:41.909Z,39.3
2022-08-25T11:22:42.927Z,38.8
2022-08-25T11:23:44.101Z,38.6
2022-08-25T11:24:44.969Z,38.4
2022-08-25T11:25:45.897Z,38
2022-08-25T11:26:47.017Z,37.4
2022-08-25T11:27:47.914Z,36.6
2022-08-25T11:28:48.929Z,36.7
2022-08-25T11:29:50.076Z,37.1
2022-08-25T11:30:51.010Z,36.9
2022-08-25T11:31:53.470Z,36.6
2022-08-25T11:32:52.926Z,35.9
2022-08-25T11:33:54.043Z,35.7
2022-08-25T11:34:54.957Z,35.9
2022-08-25T11:35:55.929Z,36.8
2022-08-25T11:36:56.917Z,37.4
2022-08-25T11:37:57.917Z,38.3
2022-08-25T11:38:58.993Z,39.2
2022-08-25T11:39:59.968Z,40.1
2022-08-25T11:41:00.951Z,40.3
2022-08-25T11:42:01.940Z,40.7
2022-08-25T11:43:02.957Z,41.5
2022-08-25T11:44:04.034Z,41.9
2022-08-25T11:45:04.956Z,43
2022-08-25T11:46:06.011Z,42.6
2022-08-25T11:47:06.966Z,42.3
2022-08-25T11:48:07.967Z,42
2022-08-25T11:49:09.113Z,42.2
2022-08-25T11:50:09.976Z,42.3
2022-08-25T11:51:10.987Z,42.5
2022-08-25T11:52:12.039Z,41.9
2022-08-25T11:53:12.930Z,41.5
2022-08-25T11:54:14.030Z,41.2
2022-08-25T11:55:14.965Z,40.9
2022-08-25T11:56:16.056Z,41
2022-08-25T11:57:16.970Z,40.9
2022-08-25T11:58:18.063Z,40.4
2022-08-25T11:59:18.997Z,40.3
2022-08-25T12:00:20.019Z,40.4
2022-08-25T12:01:20.978Z,39.8
2022-08-25T12:02:21.972Z,39.5
2022-08-25T12:03:23.009Z,39.6
2022-08-25T12:04:24.082Z,39.5
2022-08-25T12:05:25.038Z,39.2
2022-08-25T12:06:25.992Z,39
2022-08-25T12:07:27.196Z,38.2
2022-08-25T12:08:28.071Z,38.1
2022-08-25T12:09:29.022Z,38.5
2022-08-25T12:10:30.108Z,39.5
2022-08-25T12:11:31.261Z,40.1
2022-08-25T12:12:32.066Z,39.8
2022-08-25T12:13:33.092Z,39
2022-08-25T12:14:34.003Z,39.3
2022-08-25T12:15:34.992Z,39.2
2022-08-25T12:16:36.168Z,39.1
2022-08-25T12:17:37.046Z,38.3
2022-08-25T12:18:37.996Z,37.6
2022-08-25T12:19:39.066Z,37.4
2022-08-25T12:20:40.032Z,37.9
2022-08-25T12:21:41.119Z,38.4
2022-08-25T12:22:42.273Z,38.4
2022-08-25T12:23:44.741Z,39
2022-08-25T12:24:47.478Z,39.1
2022-08-25T12:25:45.021Z,38.8
2022-08-25T12:26:46.633Z,38.5
2022-08-25T12:27:47.072Z,38.9
2022-08-25T12:28:48.046Z,38.6
2022-08-25T12:29:49.016Z,38.1
2022-08-25T12:30:50.502Z,37.7
2022-08-25T12:31:51.025Z,37.2
2022-08-25T12:32:52.037Z,36.8
2022-08-25T12:33:53.039Z,37.2
2022-08-25T12:34:54.103Z,37.7
2022-08-25T12:35:56.135Z,38.1
2022-08-25T12:36:57.044Z,37.8
2022-08-25T12:37:58.043Z,37.4
2022-08-25T12:38:59.087Z,37
2022-08-25T12:40:00.142Z,37.3
2022-08-25T12:41:01.126Z,37.3
2022-08-25T12:43:03.107Z,37.5
2022-08-25T12:44:04.096Z,37.7
2022-08-25T12:45:05.323Z,37.7
2022-08-25T12:46:06.235Z,37.2
2022-08-25T12:47:11.811Z,37.8
2022-08-25T12:49:25.580Z,37.8
2022-08-25T12:50:26.140Z,37.3
2022-08-25T12:51:27.102Z,37
2022-08-25T12:52:28.282Z,36.3
2022-08-25T12:53:29.122Z,36.3
2022-08-25T12:54:32.794Z,36.2
2022-08-25T12:55:36.340Z,36.8
2022-08-25T12:56:37.665Z,37.4
2022-08-25T12:57:38.108Z,37.4
2022-08-25T12:58:58.701Z,37.3
2022-08-25T12:59:40.119Z,37
2022-08-25T13:00:41.124Z,36.6
2022-08-25T13:01:42.179Z,36.5
2022-08-25T13:02:45.041Z,36.2
2022-08-25T13:04:45.173Z,35.4
2022-08-25T13:05:46.113Z,35.8
2022-08-25T13:06:47.085Z,35.7
2022-08-25T13:07:48.126Z,36.4
2022-08-25T13:08:49.072Z,36.8
2022-08-25T13:09:50.145Z,37
2022-08-25T13:10:51.151Z,37.5
2022-08-25T13:11:52.425Z,38.3
2022-08-25T13:12:53.110Z,39
2022-08-25T13:13:54.137Z,39.3
2022-08-25T13:14:55.119Z,38.6
2022-08-25T13:15:56.125Z,38.2
2022-08-25T13:16:57.257Z,37.8
2022-08-25T13:17:58.131Z,37.7
2022-08-25T13:18:59.185Z,37.9
2022-08-25T13:20:00.123Z,37.7
2022-08-25T13:21:01.180Z,37.6
2022-08-25T13:22:02.149Z,37.5
2022-08-25T13:23:04.032Z,37.6
2022-08-25T13:24:05.070Z,38
2022-08-25T13:25:05.230Z,38.8
2022-08-25T13:26:06.158Z,39
2022-08-25T13:27:07.133Z,38.9
2022-08-25T13:28:11.075Z,38.5
2022-08-25T13:29:09.400Z,38.1
2022-08-25T13:30:10.167Z,37.9
2022-08-25T13:31:11.181Z,38.3
2022-08-25T13:32:12.706Z,38.8
2022-08-25T13:33:13.189Z,39.4
2022-08-25T13:34:14.144Z,39.4
2022-08-25T13:35:15.198Z,39.3
2022-08-25T13:36:16.196Z,39.1
2022-08-25T13:37:17.162Z,39.2
2022-08-25T13:38:18.151Z,40.3
2022-08-25T13:39:25.292Z,40.9
2022-08-25T13:40:20.251Z,41.3
2022-08-25T13:41:21.140Z,41.6
2022-08-25T13:42:24.475Z,42.1